createdAt,value
2022-07-30T00:00:46.080Z,98980.34
2022-07-30T00:03:15.548Z,98962.56
2022-07-30T00:05:45.037Z,98967.13
2022-07-30T00:08:14.387Z,98967.59
2022-07-30T00:10:43.760Z,98966.25
2022-07-30T00:13:15.332Z,98961.19
2022-07-30T00:15:47.286Z,98963.56
2022-07-30T00:18:16.879Z,98958.19
2022-07-30T00:20:46.275Z,98948.75
2022-07-30T00:23:17.877Z,98954.59
2022-07-30T00:25:47.281Z,98952.38
2022-07-30T00:28:16.639Z,98943.97
2022-07-30T00:30:48.681Z,98946.63
2022-07-30T00:33:24.983Z,98946.31
2022-07-30T00:35:55.449Z,98943.31
2022-07-30T00:38:24.820Z,98947.69
2022-07-30T00:40:54.151Z,98947.38
2022-07-30T00:43:23.525Z,98950.06
2022-07-30T00:45:55.584Z,98949.56
2022-07-30T00:48:24.956Z,98944.25
2022-07-30T00:50:54.301Z,98943.69
2022-07-30T00:53:23.875Z,98951.44
2022-07-30T00:55:53.245Z,98953.91
2022-07-30T00:58:22.808Z,98950.28
2022-07-30T01:00:54.917Z,98950.22
2022-07-30T01:03:24.576Z,98951.41
2022-07-30T01:05:54.163Z,98952.06
2022-07-30T01:08:24.580Z,98954.16
2022-07-30T01:10:54.487Z,98948.28
2022-07-30T01:13:24.070Z,98947.56
2022-07-30T01:15:58.163Z,98955.19
2022-07-30T01:18:48.728Z,98945.47
2022-07-30T01:21:18.705Z,98957.22
2022-07-30T01:23:50.320Z,98951.28
2022-07-30T01:26:23.384Z,98951.06
2022-07-30T01:28:54.666Z,98957.91
2022-07-30T01:31:27.139Z,98952.09
2022-07-30T01:33:57.783Z,98955.50
2022-07-30T01:36:29.981Z,98956.00
2022-07-30T01:39:00.271Z,98954.94
2022-07-30T01:41:33.310Z,98961.69
2022-07-30T01:44:03.392Z,98966.31
2022-07-30T01:46:34.284Z,98965.66
2022-07-30T01:49:04.522Z,98965.38
2022-07-30T01:51:37.647Z,98953.47
2022-07-30T01:54:09.897Z,98965.38
2022-07-30T01:56:42.480Z,98958.75
2022-07-30T01:59:13.379Z,98966.19
2022-07-30T02:01:42.904Z,98977.88
2022-07-30T02:04:12.407Z,98977.00
2022-07-30T02:06:44.872Z,98976.50
2022-07-30T02:09:18.512Z,98975.13
2022-07-30T02:12:04.638Z,98976.63
2022-07-30T02:14:40.907Z,98976.75
2022-07-30T02:17:18.936Z,98977.50
2022-07-30T02:19:52.270Z,98980.09
2022-07-30T02:22:23.480Z,98976.00
2022-07-30T02:24:54.037Z,98973.34
2022-07-30T02:27:28.758Z,98975.91
2022-07-30T02:30:00.554Z,98972.09
2022-07-30T02:32:33.939Z,98971.84
2022-07-30T02:35:05.308Z,98973.59
2022-07-30T02:37:43.409Z,98973.59
2022-07-30T02:40:16.323Z,98982.75
2022-07-30T02:42:49.816Z,98978.31
2022-07-30T02:45:23.161Z,98983.75
2022-07-30T02:47:54.159Z,98990.03
2022-07-30T02:50:24.775Z,98983.97
2022-07-30T02:52:56.077Z,98987.59
2022-07-30T02:55:26.187Z,98994.66
2022-07-30T02:57:59.180Z,98992.59
2022-07-30T03:00:29.896Z,98991.66
2022-07-30T03:03:01.889Z,98996.28
2022-07-30T03:05:32.001Z,98993.69
2022-07-30T03:08:03.274Z,98991.59
2022-07-30T03:10:32.984Z,98995.19
2022-07-30T03:13:05.141Z,98993.56
2022-07-30T03:15:39.486Z,98997.09
2022-07-30T03:18:10.079Z,98998.03
2022-07-30T03:20:40.072Z,98990.00
2022-07-30T03:23:10.569Z,98999.75
2022-07-30T03:25:40.257Z,98991.38
2022-07-30T03:28:13.900Z,98993.59
2022-07-30T03:30:44.187Z,98996.88
2022-07-30T03:33:15.619Z,98995.72
2022-07-30T03:35:47.251Z,98993.06
2022-07-30T03:38:17.689Z,98992.81
2022-07-30T03:40:47.871Z,98998.06
2022-07-30T03:43:33.283Z,98999.22
2022-07-30T03:46:05.525Z,98997.25
2022-07-30T03:48:38.423Z,98998.84
2022-07-30T03:51:10.272Z,99000.50
2022-07-30T03:53:43.241Z,99000.50
2022-07-30T03:56:31.380Z,99005.38
2022-07-30T03:59:18.746Z,99005.38
2022-07-30T04:01:48.409Z,99013.16
2022-07-30T04:04:26.411Z,99016.09
2022-07-30T04:06:56.867Z,99021.31
2022-07-30T04:09:26.570Z,99025.38
2022-07-30T04:11:56.260Z,99033.38
2022-07-30T04:14:41.536Z,99025.84
2022-07-30T04:17:13.263Z,99024.34
2022-07-30T04:19:46.413Z,99028.19
2022-07-30T04:22:19.615Z,99032.22
2022-07-30T04:24:49.541Z,99032.00
2022-07-30T04:27:19.917Z,99035.84
2022-07-30T04:29:52.009Z,99037.81
2022-07-30T04:32:21.577Z,99041.31
2022-07-30T04:35:49.953Z,99045.84
2022-07-30T04:38:18.666Z,99040.84
2022-07-30T04:40:52.432Z,99043.50
2022-07-30T04:43:22.203Z,99050.56
2022-07-30T04:45:54.176Z,99051.50
2022-07-30T04:48:26.136Z,99056.50
2022-07-30T04:51:07.925Z,99060.78
2022-07-30T04:53:37.576Z,99061.16
2022-07-30T04:56:08.551Z,99056.16
2022-07-30T04:58:41.360Z,99071.50
2022-07-30T05:01:14.972Z,99063.66
2022-07-30T05:03:45.123Z,99062.34
2022-07-30T05:06:15.594Z,99065.59
2022-07-30T05:08:45.714Z,99065.59
2022-07-30T05:11:15.352Z,99066.31
2022-07-30T05:13:48.420Z,99065.38
2022-07-30T05:16:24.951Z,99070.72
2022-07-30T05:18:57.200Z,99066.03
2022-07-30T05:21:28.987Z,99068.22
2022-07-30T05:23:59.544Z,99065.53
2022-07-30T05:26:39.428Z,99067.75
2022-07-30T05:29:18.075Z,99069.78
2022-07-30T05:32:03.317Z,99068.63
2022-07-30T05:34:35.659Z,99077.16
2022-07-30T05:37:05.087Z,99073.75
2022-07-30T05:39:34.695Z,99074.56
2022-07-30T05:42:26.800Z,99070.22
2022-07-30T05:45:00.322Z,99073.09
2022-07-30T05:47:32.353Z,99070.97
2022-07-30T05:50:04.981Z,99082.03
2022-07-30T05:52:35.298Z,99082.13
2022-07-30T05:55:17.173Z,99076.63
2022-07-30T05:57:56.645Z,99076.94
2022-07-30T06:00:26.219Z,99071.66
2022-07-30T06:02:59.903Z,99079.25
2022-07-30T06:05:29.285Z,99082.28
2022-07-30T06:08:02.203Z,99087.09
2022-07-30T06:10:33.174Z,99086.69
2022-07-30T06:13:02.739Z,99086.53
2022-07-30T06:15:32.231Z,99080.19
2022-07-30T06:18:05.377Z,99078.97
2022-07-30T06:20:45.303Z,99081.47
2022-07-30T06:23:33.374Z,99088.69
2022-07-30T06:26:25.949Z,99086.31
2022-07-30T06:28:55.872Z,99087.88
2022-07-30T06:31:31.652Z,99091.00
2022-07-30T06:34:03.838Z,99091.53
2022-07-30T06:36:39.407Z,99094.91
2022-07-30T06:39:56.113Z,99090.25
2022-07-30T06:42:29.722Z,99089.00
2022-07-30T06:45:17.913Z,99095.09
2022-07-30T06:48:07.795Z,99093.31
2022-07-30T06:50:41.480Z,99098.78
2022-07-30T06:53:11.206Z,99097.81
2022-07-30T06:56:00.491Z,99093.56
2022-07-30T06:58:36.674Z,99100.59
2022-07-30T07:01:28.937Z,99097.75
2022-07-30T07:03:59.250Z,99091.97
2022-07-30T07:06:31.699Z,99094.47
2022-07-30T07:09:01.422Z,99096.41
2022-07-30T07:11:38.592Z,99094.63
2022-07-30T07:14:12.350Z,99092.03
2022-07-30T07:16:41.815Z,99094.44
2022-07-30T07:20:01.684Z,99091.56
2022-07-30T07:22:26.095Z,99101.34
2022-07-30T07:24:56.141Z,99093.63
2022-07-30T07:27:29.754Z,99094.13
2022-07-30T07:30:05.294Z,99095.72
2022-07-30T07:32:36.744Z,99098.50
2022-07-30T07:35:07.226Z,99096.34
2022-07-30T07:37:42.769Z,99092.34
2022-07-30T07:40:19.141Z,99092.91
2022-07-30T07:42:48.972Z,99091.63
2022-07-30T07:45:21.131Z,99091.09
2022-07-30T07:47:59.420Z,99087.09
2022-07-30T07:51:00.313Z,99087.44
2022-07-30T07:53:35.847Z,99091.78
2022-07-30T07:56:08.472Z,99084.53
2022-07-30T07:58:40.498Z,99084.00
2022-07-30T08:01:12.269Z,99084.25
2022-07-30T08:04:13.746Z,99078.59
2022-07-30T08:07:03.672Z,99072.94
2022-07-30T08:10:13.955Z,99078.06
2022-07-30T08:13:00.423Z,99071.31
2022-07-30T08:15:48.827Z,99067.81
2022-07-30T08:18:38.455Z,99071.31
2022-07-30T08:21:26.285Z,99054.00
2022-07-30T08:23:55.940Z,99074.50
2022-07-30T08:26:28.395Z,99062.34
2022-07-30T08:28:57.870Z,99072.59
2022-07-30T08:31:27.301Z,99076.88
2022-07-30T08:33:56.744Z,99070.59
2022-07-30T08:36:26.187Z,99066.03
2022-07-30T08:38:56.748Z,99061.66
2022-07-30T08:41:29.035Z,99066.75
2022-07-30T08:43:58.666Z,99072.94
2022-07-30T08:46:30.568Z,99069.44
2022-07-30T08:49:07.538Z,99070.72
2022-07-30T08:51:40.731Z,99065.75
2022-07-30T08:54:41.885Z,99071.03
2022-07-30T08:57:15.152Z,99065.53
2022-07-30T08:59:59.866Z,99060.41
2022-07-30T09:02:33.031Z,99061.91
2022-07-30T09:05:07.144Z,99065.06
2022-07-30T09:07:37.513Z,99062.41
2022-07-30T09:10:10.458Z,99050.84
2022-07-30T09:12:43.980Z,99062.13
2022-07-30T09:15:15.833Z,99052.75
2022-07-30T09:17:53.116Z,99060.28
2022-07-30T09:20:24.794Z,99057.91
2022-07-30T09:22:56.420Z,99062.16
2022-07-30T09:25:45.983Z,99060.50
2022-07-30T09:28:38.517Z,99062.16
2022-07-30T09:34:40.061Z,99056.31
2022-07-30T09:37:19.845Z,99061.38
2022-07-30T09:40:14.025Z,99059.81
2022-07-30T09:43:25.899Z,99064.28
2022-07-30T09:46:05.745Z,99057.78
2022-07-30T09:48:35.486Z,99050.06
2022-07-30T09:51:05.517Z,99063.28
2022-07-30T09:54:00.099Z,99074.84
2022-07-30T09:56:32.642Z,99062.22
2022-07-30T09:59:02.794Z,99055.22
2022-07-30T10:01:54.915Z,99064.84
2022-07-30T10:05:15.074Z,99051.31
2022-07-30T10:07:55.095Z,99051.22
2022-07-30T10:10:26.137Z,99047.94
2022-07-30T10:12:57.675Z,99049.84
2022-07-30T10:15:27.816Z,99048.16
2022-07-30T10:17:58.054Z,99050.34
2022-07-30T10:20:49.313Z,99046.88
2022-07-30T10:23:39.801Z,99033.97
2022-07-30T10:26:35.916Z,99039.25
2022-07-30T10:29:38.661Z,99035.13
2022-07-30T10:32:12.257Z,99038.56
2022-07-30T10:34:43.678Z,99027.03
2022-07-30T10:37:16.850Z,99023.06
2022-07-30T10:39:50.358Z,99031.78
2022-07-30T10:42:28.495Z,99034.06
2022-07-30T10:45:17.573Z,99034.22
2022-07-30T10:47:48.785Z,99028.09
2022-07-30T10:50:22.447Z,99016.66
2022-07-30T10:52:55.776Z,99024.91
2022-07-30T10:55:37.557Z,99014.41
2022-07-30T10:58:09.249Z,99026.00
2022-07-30T11:00:59.490Z,99030.09
2022-07-30T11:03:41.318Z,99014.22
2022-07-30T11:06:27.918Z,99010.78
2022-07-30T11:09:00.017Z,99026.41
2022-07-30T11:12:01.367Z,99020.44
2022-07-30T11:14:48.838Z,99012.31
2022-07-30T11:17:19.407Z,99014.44
2022-07-30T11:20:04.293Z,99012.81
2022-07-30T11:22:38.728Z,99001.00
2022-07-30T11:25:13.497Z,99003.22
2022-07-30T11:27:46.060Z,98999.19
2022-07-30T11:30:30.511Z,98998.75
2022-07-30T11:33:20.525Z,99006.31
2022-07-30T11:36:07.490Z,98997.03
2022-07-30T11:38:55.054Z,98989.00
2022-07-30T11:41:27.265Z,98995.47
2022-07-30T11:44:11.618Z,98995.06
2022-07-30T11:46:50.627Z,98991.75
2022-07-30T11:49:21.557Z,98990.84
2022-07-30T11:51:51.537Z,98989.13
2022-07-30T11:54:21.194Z,98987.09
2022-07-30T11:56:54.259Z,98993.25
2022-07-30T11:59:23.579Z,98995.00
2022-07-30T12:01:53.939Z,98985.03
2022-07-30T12:04:24.467Z,98982.09
2022-07-30T12:06:54.163Z,98979.19
2022-07-30T12:09:28.885Z,98970.78
2022-07-30T12:12:02.354Z,98956.38
2022-07-30T12:14:39.363Z,98967.84
2022-07-30T12:17:15.435Z,98967.78
2022-07-30T12:19:48.784Z,98957.94
2022-07-30T12:22:18.379Z,98951.41
2022-07-30T12:24:47.769Z,98961.22
2022-07-30T12:27:20.196Z,98959.34
2022-07-30T12:29:49.576Z,98964.66
2022-07-30T12:32:19.457Z,98961.06
2022-07-30T12:34:56.281Z,98942.09
2022-07-30T12:37:25.664Z,98950.97
2022-07-30T12:40:10.530Z,98959.09
2022-07-30T12:42:54.573Z,98937.94
2022-07-30T12:45:30.944Z,98947.91
2022-07-30T12:48:20.293Z,98949.28
2022-07-30T12:50:51.435Z,98942.19
2022-07-30T12:53:21.668Z,98938.44
2022-07-30T12:55:51.018Z,98929.53
2022-07-30T12:58:23.075Z,98937.53
2022-07-30T14:49:35.623Z,98899.84
2022-07-30T14:52:05.009Z,98891.56
2022-07-30T14:54:34.754Z,98901.69
2022-07-30T14:57:04.442Z,98888.84
2022-07-30T14:59:33.893Z,98900.75
2022-07-30T15:02:03.368Z,98898.97
2022-07-30T15:04:35.396Z,98893.84
2022-07-30T15:07:06.834Z,98896.41
2022-07-30T15:09:36.649Z,98889.50
2022-07-30T15:12:09.822Z,98891.91
2022-07-30T15:14:40.253Z,98900.09
2022-07-30T15:17:10.397Z,98890.06
2022-07-30T15:19:49.940Z,98895.63
2022-07-30T15:22:20.637Z,98895.22
2022-07-30T15:24:50.067Z,98896.56
2022-07-30T15:27:22.327Z,98899.94
2022-07-30T15:29:54.108Z,98894.50
2022-07-30T15:32:23.369Z,98905.81
2022-07-30T15:34:55.358Z,98905.13
2022-07-30T15:37:24.760Z,98901.22
2022-07-30T15:39:54.162Z,98894.09
2022-07-30T15:42:23.751Z,98893.50
2022-07-30T15:45:15.358Z,98894.81
2022-07-30T15:47:42.410Z,98893.53
2022-07-30T15:50:15.482Z,98886.56
2022-07-30T15:52:44.800Z,98889.56
2022-07-30T15:55:14.187Z,98892.91
2022-07-30T15:57:43.559Z,98886.00
2022-07-30T16:00:13.386Z,98884.25
2022-07-30T16:02:44.460Z,98897.72
2022-07-30T16:05:16.528Z,98893.88
2022-07-30T16:07:46.230Z,98902.31
2022-07-30T16:10:15.611Z,98900.59
2022-07-30T16:12:45.056Z,98896.69
2022-07-30T16:15:14.447Z,98896.75
2022-07-30T16:17:45.729Z,98894.38
2022-07-30T16:20:17.701Z,98898.25
2022-07-30T16:22:47.490Z,98898.31
2022-07-30T16:25:17.074Z,98896.53
2022-07-30T16:27:46.377Z,98895.47
2022-07-30T16:30:15.808Z,98891.91
2022-07-30T16:32:45.155Z,98884.22
2022-07-30T16:35:17.049Z,98876.00
2022-07-30T16:37:46.386Z,98880.97
2022-07-30T16:40:16.054Z,98864.81
2022-07-30T16:42:45.401Z,98864.81
2022-07-30T16:45:14.746Z,98870.88
2022-07-30T16:47:44.054Z,98870.53
2022-07-30T16:50:13.435Z,98868.66
2022-07-30T16:52:45.369Z,98874.13
2022-07-30T16:55:14.698Z,98869.81
2022-07-30T16:57:44.006Z,98872.25
2022-07-30T17:00:14.937Z,98890.81
2022-07-30T17:02:44.259Z,98881.38
2022-07-30T17:05:14.074Z,98882.53
2022-07-30T17:07:46.111Z,98880.78
2022-07-30T17:10:15.414Z,98881.13
2022-07-30T17:12:57.033Z,98882.13
2022-07-30T17:15:32.835Z,98890.63
2022-07-30T17:18:02.628Z,98887.28
2022-07-30T17:20:32.177Z,98881.72
2022-07-30T17:23:04.166Z,98884.13
2022-07-30T17:25:33.501Z,98881.66
2022-07-30T17:28:02.994Z,98883.56
2022-07-30T17:30:32.794Z,98890.59
2022-07-30T17:33:02.261Z,98889.56
2022-07-30T17:35:31.678Z,98888.72
2022-07-30T17:38:07.336Z,98893.16
2022-07-30T17:40:36.704Z,98891.22
2022-07-30T17:43:07.745Z,98891.38
2022-07-30T17:45:38.493Z,98895.94
2022-07-30T17:48:08.368Z,98898.91
2022-07-30T17:50:37.864Z,98905.94
2022-07-30T17:53:09.939Z,98896.34
2022-07-30T17:55:39.343Z,98905.66
2022-07-30T17:58:09.258Z,98910.25
2022-07-30T18:00:38.773Z,98913.75
2022-07-30T18:03:08.176Z,98910.31
2022-07-30T18:05:37.643Z,98913.13
2022-07-30T18:08:07.297Z,98921.63
2022-07-30T18:10:39.235Z,98924.72
2022-07-30T18:13:25.917Z,98926.72
2022-07-30T18:15:56.641Z,98926.91
2022-07-30T18:18:26.094Z,98927.09
2022-07-30T18:20:55.534Z,98921.16
2022-07-30T18:23:24.786Z,98928.75
2022-07-30T18:26:06.849Z,98929.88
2022-07-30T18:28:36.814Z,98931.81
2022-07-30T18:31:06.133Z,98932.94
2022-07-30T18:33:35.504Z,98936.94
2022-07-30T18:36:04.814Z,98936.06
2022-07-30T18:38:34.085Z,98942.53
2022-07-30T18:41:06.453Z,98949.53
2022-07-30T18:43:47.916Z,98948.94
2022-07-30T18:46:17.932Z,98957.44
2022-07-30T18:48:48.619Z,98962.34
2022-07-30T18:51:18.719Z,98966.03
2022-07-30T18:53:48.102Z,98968.63
2022-07-30T18:56:19.983Z,98970.91
2022-07-30T18:58:49.300Z,98971.06
2022-07-30T19:01:20.778Z,98963.97
2022-07-30T19:03:50.116Z,98969.84
2022-07-30T19:06:19.458Z,98973.75
2022-07-30T19:08:51.035Z,98973.63
2022-07-30T19:11:23.811Z,98982.41
2022-07-30T19:13:53.160Z,98987.09
2022-07-30T19:16:23.329Z,98995.53
2022-07-30T19:18:52.659Z,99004.22
2022-07-30T19:21:22.102Z,99009.91
2022-07-30T19:23:51.468Z,99020.53
2022-07-30T19:26:23.436Z,99018.47
2022-07-30T19:28:52.741Z,99023.00
2022-07-30T19:31:22.266Z,99027.94
2022-07-30T19:33:51.740Z,99021.91
2022-07-30T19:36:21.737Z,99024.69
2022-07-30T19:38:51.961Z,99027.59
2022-07-30T19:41:24.762Z,99025.34
2022-07-30T19:43:55.740Z,99034.06
2022-07-30T19:46:27.732Z,99039.81
2022-07-30T19:48:58.807Z,99043.63
2022-07-30T19:52:11.198Z,99047.41
2022-07-30T19:54:18.630Z,99053.13
2022-07-30T19:56:50.842Z,99042.13
2022-07-30T19:59:43.698Z,99058.38
2022-07-30T20:02:10.006Z,99049.44
2022-07-30T20:04:39.385Z,99053.78
2022-07-30T20:07:12.904Z,99057.59
2022-07-30T20:09:44.597Z,99067.88
2022-07-30T20:12:20.399Z,99069.78
2022-07-30T20:14:53.602Z,99067.13
2022-07-30T20:17:23.874Z,99066.59
2022-07-30T20:19:59.389Z,99068.56
2022-07-30T20:22:29.270Z,99066.94
2022-07-30T20:24:58.995Z,99071.44
2022-07-30T20:27:37.194Z,99068.72
2022-07-30T20:30:09.136Z,99066.50
2022-07-30T20:32:40.639Z,99076.28
2022-07-30T20:35:15.738Z,99071.19
2022-07-30T20:37:54.745Z,99074.75
2022-07-30T20:40:26.767Z,99081.47
2022-07-30T20:42:59.946Z,99082.06
2022-07-30T20:45:40.515Z,99082.91
2022-07-30T20:48:17.521Z,99085.56
2022-07-30T20:50:54.589Z,99085.00
2022-07-30T20:53:24.901Z,99089.59
2022-07-30T20:56:03.086Z,99089.97
2022-07-30T20:58:34.941Z,99088.09
2022-07-30T21:01:15.579Z,99087.56
2022-07-30T21:03:48.081Z,99089.44
2022-07-30T21:06:18.344Z,99094.88
2022-07-30T21:08:47.608Z,99091.66
2022-07-30T21:11:16.929Z,99089.75
2022-07-30T21:13:48.820Z,99089.50
2022-07-30T21:16:21.466Z,99087.66
2022-07-30T21:18:51.202Z,99093.06
2022-07-30T21:21:30.562Z,99101.19
2022-07-30T21:24:12.282Z,99097.69
2022-07-30T21:26:42.455Z,99099.31
2022-07-30T21:29:14.498Z,99100.69
2022-07-30T21:32:01.597Z,99103.13
2022-07-30T21:34:40.450Z,99099.06
2022-07-30T21:37:13.053Z,99097.75
2022-07-30T21:39:45.162Z,99105.34
2022-07-30T21:42:14.961Z,99109.13
2022-07-30T21:44:46.914Z,99103.16
2022-07-30T21:47:16.366Z,99106.16
2022-07-30T21:49:45.726Z,99107.25
2022-07-30T21:52:16.656Z,99102.97
2022-07-30T21:54:50.427Z,99107.31
2022-07-30T21:57:26.295Z,99110.28
2022-07-30T22:00:02.100Z,99111.69
2022-07-30T22:02:52.810Z,99110.88
2022-07-30T22:05:23.526Z,99114.13
2022-07-30T22:08:07.869Z,99113.59
2022-07-30T22:10:41.298Z,99110.38
2022-07-30T22:13:11.005Z,99110.09
2022-07-30T22:15:45.263Z,99118.19
2022-07-30T22:18:14.663Z,99126.03
2022-07-30T22:20:44.225Z,99120.09
2022-07-30T22:23:13.881Z,99116.03
2022-07-30T22:25:43.971Z,99114.47
2022-07-30T22:30:47.382Z,99121.75
2022-07-30T22:33:17.533Z,99123.38
2022-07-30T22:35:49.776Z,99122.31
2022-07-30T22:38:19.906Z,99118.00
2022-07-30T22:40:49.608Z,99123.94
2022-07-30T22:43:18.935Z,99124.50
2022-07-30T22:45:50.884Z,99121.50
2022-07-30T22:48:21.921Z,99124.22
2022-07-30T22:50:57.105Z,99123.69
2022-07-30T22:54:10.527Z,99127.16
2022-07-30T22:56:20.235Z,99129.06
2022-07-30T22:58:53.311Z,99126.09
2022-07-30T23:01:25.212Z,99127.97
2022-07-30T23:03:55.392Z,99122.31
2022-07-30T23:06:24.739Z,99121.50
2022-07-30T23:08:54.032Z,99121.22
2022-07-30T23:11:24.589Z,99122.59
2022-07-30T23:14:06.425Z,99123.66
2022-07-30T23:16:38.583Z,99121.75
2022-07-30T23:19:09.593Z,99120.97
2022-07-30T23:21:48.641Z,99110.41
2022-07-30T23:24:18.305Z,99112.28
2022-07-30T23:26:48.034Z,99108.50
2022-07-30T23:29:19.858Z,99107.97
2022-07-30T23:31:51.744Z,99113.38
2022-07-30T23:34:21.038Z,99108.50
2022-07-30T23:36:50.363Z,99104.47
2022-07-30T23:39:19.713Z,99109.06
2022-07-30T23:41:49.008Z,99110.66
2022-07-30T23:44:18.331Z,99099.59
2022-07-30T23:46:47.626Z,99110.03
2022-07-30T23:49:19.565Z,99107.03
2022-07-30T23:51:48.854Z,99107.28
2022-07-30T23:54:18.210Z,99107.03
2022-07-30T23:56:49.214Z,99109.97
2022-07-30T23:59:18.530Z,99102.97
